Time;durP1;ratioP1;P1;durP2;ratioP2;P2;SDS_P1;SDS_P2;PMS_P1;PMS_P2;Temp;Humidity;BMP_temperature;BMP_pressure;BME280_temperature;BME280_humidity;BME280_pressure;Samples;Min_cycle;Max_cycle;Signal;HPM_P1;HPM_P2
2023/06/29 00:01:27;;;;;;;3.03;2.10;;;17.40;99.90;;;;;;5051222;28;20205;-63
2023/06/29 00:03:54;;;;;;;5.50;2.35;;;17.40;99.90;;;;;;5051070;28;20607;-64
2023/06/29 00:06:22;;;;;;;3.65;2.70;;;17.40;99.90;;;;;;5050762;28;20296;-63
2023/06/29 00:08:49;;;;;;;4.75;2.47;;;17.40;99.90;;;;;;5050763;28;20374;-63
2023/06/29 00:11:16;;;;;;;4.07;2.33;;;17.40;99.90;;;;;;5050857;28;20669;-63
2023/06/29 00:13:43;;;;;;;6.70;2.53;;;17.40;99.90;;;;;;5051156;28;20282;-63
2023/06/29 00:16:09;;;;;;;2.70;2.25;;;17.40;99.90;;;;;;5050862;28;20308;-63
2023/06/29 00:18:36;;;;;;;3.58;2.20;;;17.30;99.90;;;;;;5051158;28;20205;-64
2023/06/29 00:21:04;;;;;;;3.63;2.20;;;17.40;99.90;;;;;;5051301;28;20217;-64
2023/06/29 00:23:34;;;;;;;4.47;2.47;;;17.30;99.90;;;;;;5051583;28;20279;-63
2023/06/29 00:26:02;;;;;;;3.33;2.17;;;17.30;99.90;;;;;;5050920;28;20599;-64
2023/06/29 00:28:29;;;;;;;3.10;1.83;;;17.20;99.90;;;;;;5051182;28;20226;-63
2023/06/29 00:30:56;;;;;;;3.05;2.03;;;17.20;99.90;;;;;;5050750;28;20201;-63
2023/06/29 00:33:23;;;;;;;3.15;2.10;;;17.20;99.90;;;;;;5050598;28;20321;-62
2023/06/29 00:35:49;;;;;;;2.67;2.25;;;17.20;99.90;;;;;;5050870;28;20209;-63
2023/06/29 00:38:16;;;;;;;4.90;2.42;;;17.10;99.90;;;;;;5050750;28;20688;-62
2023/06/29 00:40:44;;;;;;;3.65;2.38;;;17.00;99.90;;;;;;5050879;28;20201;-62
2023/06/29 00:43:11;;;;;;;5.38;2.60;;;17.00;99.90;;;;;;5050792;28;20220;-62
2023/06/29 00:45:38;;;;;;;4.50;2.35;;;17.00;99.90;;;;;;5051023;28;20240;-63
2023/06/29 00:48:05;;;;;;;2.00;1.80;;;16.90;99.90;;;;;;5050947;28;20637;-63
2023/06/29 00:50:32;;;;;;;4.53;2.28;;;17.10;99.90;;;;;;5051553;28;20673;-63
2023/06/29 00:53:00;;;;;;;2.60;2.15;;;16.90;99.90;;;;;;5053303;28;20202;-63
2023/06/29 00:55:27;;;;;;;4.43;2.13;;;16.90;99.90;;;;;;5053431;28;20538;-62
2023/06/29 00:57:55;;;;;;;4.38;2.38;;;16.80;99.90;;;;;;5052867;28;20209;-62
2023/06/29 01:00:22;;;;;;;3.58;2.20;;;16.80;99.90;;;;;;5053394;28;20205;-62
2023/06/29 01:02:49;;;;;;;6.10;2.40;;;16.80;99.90;;;;;;5052410;28;20217;-63
2023/06/29 01:05:17;;;;;;;7.05;2.47;;;16.70;99.90;;;;;;5050901;28;20324;-63
2023/06/29 01:07:49;;;;;;;3.03;2.03;;;16.70;99.90;;;;;;5050834;28;20601;-62
2023/06/29 01:10:21;;;;;;;5.03;2.30;;;16.70;99.90;;;;;;5050772;28;20205;-62
2023/06/29 01:12:49;;;;;;;3.33;2.10;;;16.60;99.90;;;;;;5052161;28;20244;-62
2023/06/29 01:15:18;;;;;;;4.07;2.20;;;16.60;99.90;;;;;;5118171;22;20273;-59
2023/06/29 01:17:47;;;;;;;2.50;2.13;;;16.70;99.90;;;;;;5094129;28;20269;-57
2023/06/29 01:20:15;;;;;;;3.25;2.22;;;16.70;99.90;;;;;;5094815;28;20204;-57
2023/06/29 01:22:55;;;;;;;6.30;2.60;;;16.70;99.90;;;;;;5094306;28;20254;-57
2023/06/29 01:25:24;;;;;;;4.32;2.00;;;16.70;99.90;;;;;;5094254;28;20280;-57
2023/06/29 01:27:51;;;;;;;3.70;2.30;;;16.70;99.90;;;;;;5093747;28;20239;-56
2023/06/29 01:30:18;;;;;;;7.82;2.28;;;16.70;99.90;;;;;;5094264;28;20204;-56
2023/06/29 01:32:44;;;;;;;5.60;2.50;;;16.70;99.90;;;;;;5094048;28;20691;-57
2023/06/29 01:35:12;;;;;;;4.90;2.90;;;16.60;99.90;;;;;;5094155;28;20656;-57
2023/06/29 01:37:49;;;;;;;6.10;2.40;;;16.60;99.90;;;;;;5093784;28;20225;-57
2023/06/29 01:40:21;;;;;;;3.97;2.30;;;16.50;99.90;;;;;;5093820;28;20621;-56
2023/06/29 01:42:51;;;;;;;5.50;2.30;;;16.40;99.90;;;;;;5094120;28;20210;-56
2023/06/29 01:45:20;;;;;;;4.35;2.35;;;16.40;99.90;;;;;;5093973;28;20224;-56
2023/06/29 01:47:47;;;;;;;3.20;2.20;;;16.40;99.90;;;;;;5093503;28;20299;-57
2023/06/29 01:50:16;;;;;;;3.05;2.33;;;16.30;99.90;;;;;;5093758;28;20208;-57
2023/06/29 01:52:43;;;;;;;2.88;2.25;;;16.40;99.90;;;;;;5093611;28;20204;-56
2023/06/29 01:55:10;;;;;;;2.63;2.40;;;16.30;99.90;;;;;;5093831;28;20646;-57
2023/06/29 01:57:37;;;;;;;2.88;2.30;;;16.30;99.90;;;;;;5093486;28;20204;-58
2023/06/29 02:00:07;;;;;;;4.03;2.38;;;16.20;99.90;;;;;;5093620;28;20212;-57
2023/06/29 02:02:33;;;;;;;4.72;2.35;;;16.10;99.90;;;;;;5093621;28;20717;-57
2023/06/29 02:05:00;;;;;;;5.95;2.33;;;16.10;99.90;;;;;;5093414;28;20700;-57
2023/06/29 02:07:27;;;;;;;3.70;2.50;;;16.00;99.90;;;;;;5093082;28;20204;-56
2023/06/29 02:09:53;;;;;;;3.55;2.65;;;16.10;99.90;;;;;;5093709;28;20211;-58
2023/06/29 02:12:20;;;;;;;3.65;2.30;;;16.00;99.90;;;;;;5093775;28;20215;-57
2023/06/29 02:14:47;;;;;;;4.45;2.30;;;16.00;99.90;;;;;;5093343;28;20228;-56
2023/06/29 02:17:15;;;;;;;2.55;2.35;;;16.00;99.90;;;;;;5093682;28;20204;-57
2023/06/29 02:19:42;;;;;;;4.65;2.40;;;16.00;99.90;;;;;;5093055;28;20651;-56
2023/06/29 02:22:09;;;;;;;4.27;2.67;;;15.90;99.90;;;;;;5093416;28;20204;-56
2023/06/29 02:24:35;;;;;;;4.57;2.22;;;15.80;99.90;;;;;;5093186;28;20228;-58
2023/06/29 02:27:02;;;;;;;4.10;2.47;;;15.80;99.90;;;;;;5092795;28;20208;-58
2023/06/29 02:29:29;;;;;;;6.20;2.70;;;15.80;99.90;;;;;;5093176;28;20209;-58
2023/06/29 02:31:55;;;;;;;4.28;2.60;;;15.80;99.90;;;;;;5092853;28;20205;-56
2023/06/29 02:34:23;;;;;;;3.72;2.63;;;15.80;99.90;;;;;;5093031;28;20251;-57
2023/06/29 02:36:50;;;;;;;4.67;2.70;;;15.70;99.90;;;;;;5092512;28;20212;-57
2023/06/29 02:39:17;;;;;;;4.22;2.65;;;15.70;99.90;;;;;;5092790;28;20228;-57
2023/06/29 02:41:43;;;;;;;4.18;2.65;;;15.70;99.90;;;;;;5092814;28;20303;-57
2023/06/29 02:44:10;;;;;;;2.80;2.47;;;15.70;99.90;;;;;;5092560;28;20635;-58
2023/06/29 02:46:37;;;;;;;4.45;2.60;;;15.90;99.90;;;;;;5092348;28;20688;-57
2023/06/29 02:49:03;;;;;;;3.93;2.43;;;15.70;99.90;;;;;;5092424;28;20345;-57
2023/06/29 02:51:32;;;;;;;5.05;2.75;;;15.60;99.90;;;;;;5092708;28;20215;-57
2023/06/29 02:53:58;;;;;;;3.35;2.42;;;15.60;99.90;;;;;;5092552;28;20231;-57
2023/06/29 02:56:25;;;;;;;3.45;2.17;;;15.50;99.90;;;;;;5092282;28;20618;-57
2023/06/29 02:58:52;;;;;;;6.63;2.35;;;15.50;99.90;;;;;;5092715;28;20232;-55
2023/06/29 03:01:18;;;;;;;4.80;2.60;;;15.50;99.90;;;;;;5092350;28;20211;-57
2023/06/29 03:03:45;;;;;;;6.90;2.90;;;15.50;99.90;;;;;;5092181;28;20224;-57
2023/06/29 03:06:12;;;;;;;4.93;2.47;;;15.50;99.90;;;;;;5092285;28;20585;-57
2023/06/29 03:08:40;;;;;;;2.73;2.40;;;15.40;99.90;;;;;;5092928;28;20290;-57
2023/06/29 03:11:06;;;;;;;5.78;3.00;;;15.40;99.90;;;;;;5092317;28;20227;-57
2023/06/29 03:13:33;;;;;;;7.38;2.60;;;15.40;99.90;;;;;;5091942;28;20565;-58
2023/06/29 03:16:01;;;;;;;2.60;2.40;;;15.40;99.90;;;;;;5091890;28;20200;-57
2023/06/29 03:18:27;;;;;;;3.50;2.43;;;15.40;99.90;;;;;;5092265;28;20322;-57
2023/06/29 03:20:54;;;;;;;4.17;2.60;;;15.40;99.90;;;;;;5092577;28;20596;-57
2023/06/29 03:23:21;;;;;;;5.95;2.88;;;15.40;99.90;;;;;;5092635;28;20215;-57
2023/06/29 03:25:49;;;;;;;4.90;2.50;;;15.40;99.90;;;;;;5091859;28;20204;-57
2023/06/29 03:28:16;;;;;;;5.40;2.70;;;15.40;99.90;;;;;;5092036;28;20260;-58
2023/06/29 03:30:43;;;;;;;5.72;3.10;;;15.40;99.90;;;;;;5091786;28;20211;-57
2023/06/29 03:33:09;;;;;;;3.35;2.60;;;15.50;99.90;;;;;;5092113;28;20261;-58
2023/06/29 03:35:36;;;;;;;4.50;2.30;;;15.50;99.90;;;;;;5091266;28;20224;-58
2023/06/29 03:38:07;;;;;;;5.50;2.37;;;15.50;99.90;;;;;;5091806;28;20635;-57
2023/06/29 03:40:33;;;;;;;3.33;2.30;;;15.50;99.90;;;;;;5091785;28;20746;-57
2023/06/29 03:43:02;;;;;;;5.13;3.10;;;15.50;99.90;;;;;;5091772;28;20226;-57
2023/06/29 03:45:30;;;;;;;3.10;2.67;;;15.50;99.90;;;;;;5091499;28;20712;-59
2023/06/29 03:47:56;;;;;;;4.40;2.60;;;15.60;99.90;;;;;;5091751;28;20287;-58
2023/06/29 03:50:23;;;;;;;6.23;2.90;;;15.50;99.90;;;;;;5091732;28;20204;-56
2023/06/29 03:52:50;;;;;;;5.43;3.00;;;15.50;99.90;;;;;;5091847;28;20200;-57
2023/06/29 03:55:17;;;;;;;4.50;2.60;;;15.60;99.90;;;;;;5091786;28;20220;-60
2023/06/29 03:57:44;;;;;;;3.63;2.80;;;15.60;99.90;;;;;;5091550;28;20204;-56
2023/06/29 04:00:13;;;;;;;4.80;2.90;;;15.70;99.90;;;;;;5091700;28;20683;-58
2023/06/29 04:02:41;;;;;;;4.17;2.50;;;15.70;99.90;;;;;;5091480;28;20699;-60
2023/06/29 04:05:08;;;;;;;6.40;2.80;;;15.80;99.90;;;;;;5091366;28;20231;-58
2023/06/29 04:07:35;;;;;;;3.10;2.70;;;15.90;99.90;;;;;;5091334;28;20215;-58
2023/06/29 04:10:02;;;;;;;6.13;2.77;;;16.00;99.90;;;;;;5091361;28;20200;-58
2023/06/29 04:12:29;;;;;;;6.75;2.85;;;15.90;99.90;;;;;;5091041;28;20211;-58
2023/06/29 04:14:55;;;;;;;2.97;2.47;;;16.00;99.90;;;;;;5091023;28;20743;-57
2023/06/29 04:17:23;;;;;;;4.75;2.88;;;16.10;99.90;;;;;;5091141;28;20676;-60
2023/06/29 04:19:50;;;;;;;2.60;2.30;;;16.10;99.90;;;;;;5091478;28;20219;-57
2023/06/29 04:22:17;;;;;;;4.20;2.40;;;16.10;99.90;;;;;;5091697;28;20208;-58
2023/06/29 04:24:43;;;;;;;3.95;2.50;;;16.20;99.90;;;;;;5091419;28;20231;-58
2023/06/29 04:27:11;;;;;;;3.27;2.70;;;16.30;99.90;;;;;;5091357;28;20218;-56
2023/06/29 04:29:37;;;;;;;8.25;3.92;;;16.40;99.90;;;;;;5091445;28;20203;-59
2023/06/29 04:32:05;;;;;;;3.72;2.35;;;16.40;99.90;;;;;;5091343;28;20207;-57
2023/06/29 04:34:33;;;;;;;4.65;2.63;;;16.50;99.90;;;;;;5091392;28;20231;-59
2023/06/29 04:37:02;;;;;;;4.10;2.88;;;16.60;99.90;;;;;;5091126;28;20215;-58
2023/06/29 04:39:29;;;;;;;3.30;2.50;;;16.70;99.90;;;;;;5090993;28;20224;-58
2023/06/29 04:42:00;;;;;;;4.80;2.58;;;16.80;99.90;;;;;;5091602;28;20208;-59
2023/06/29 04:44:31;;;;;;;5.63;2.90;;;17.00;99.90;;;;;;5091122;28;20285;-58
2023/06/29 04:46:59;;;;;;;6.03;2.50;;;17.10;99.90;;;;;;5091429;28;20299;-57
2023/06/29 04:49:27;;;;;;;4.43;2.35;;;17.50;99.90;;;;;;5094986;28;20231;-58
2023/06/29 04:51:59;;;;;;;5.07;2.20;;;18.60;99.90;;;;;;5095031;28;20652;-58
2023/06/29 04:54:26;;;;;;;4.85;2.47;;;20.20;99.90;;;;;;5095071;28;20719;-58
2023/06/29 04:56:52;;;;;;;2.30;2.10;;;22.20;99.90;;;;;;5095064;28;20288;-57
2023/06/29 04:59:21;;;;;;;5.18;2.00;;;24.00;99.90;;;;;;5095090;28;20365;-58
2023/06/29 05:01:48;;;;;;;5.18;2.35;;;25.60;98.20;;;;;;5094952;28;20295;-64
2023/06/29 05:04:15;;;;;;;5.45;2.15;;;27.10;92.50;;;;;;5094838;28;20718;-60
2023/06/29 05:06:41;;;;;;;4.05;2.40;;;28.10;87.30;;;;;;5094436;28;20208;-62
2023/06/29 05:09:10;;;;;;;2.53;1.95;;;28.90;81.60;;;;;;5094900;28;20674;-60
2023/06/29 05:11:37;;;;;;;3.67;2.08;;;29.60;77.50;;;;;;5094719;28;20610;-57
2023/06/29 05:14:03;;;;;;;2.70;1.85;;;30.30;74.00;;;;;;5094534;28;20239;-55
2023/06/29 05:16:30;;;;;;;4.65;2.20;;;31.00;70.40;;;;;;5094109;28;20221;-56
2023/06/29 05:18:57;;;;;;;2.65;1.90;;;31.50;67.50;;;;;;5094360;28;20200;-57
2023/06/29 05:21:23;;;;;;;2.95;2.00;;;32.00;64.70;;;;;;5094474;28;20209;-56
2023/06/29 05:23:50;;;;;;;4.38;1.90;;;32.20;63.10;;;;;;5094466;28;20234;-57
2023/06/29 05:26:18;;;;;;;5.97;2.20;;;32.50;61.10;;;;;;5094082;28;20606;-57
2023/06/29 05:28:45;;;;;;;9.13;2.03;;;32.70;60.10;;;;;;5094753;28;20204;-57
2023/06/29 05:31:11;;;;;;;2.50;1.83;;;32.90;59.30;;;;;;5094774;28;20241;-56
2023/06/29 05:33:38;;;;;;;3.08;1.67;;;33.30;57.50;;;;;;5094519;28;20277;-56
2023/06/29 05:36:05;;;;;;;2.92;1.85;;;33.70;56.80;;;;;;5094044;28;20587;-58
2023/06/29 05:38:32;;;;;;;2.78;1.83;;;34.30;55.50;;;;;;5094546;28;20208;-57
2023/06/29 05:40:58;;;;;;;3.08;1.90;;;34.90;54.00;;;;;;5094160;28;20327;-56
2023/06/29 05:43:26;;;;;;;6.70;2.38;;;35.40;52.40;;;;;;5094118;28;20208;-57
2023/06/29 05:45:53;;;;;;;7.25;2.22;;;35.90;51.50;;;;;;5093905;28;20556;-57
2023/06/29 05:48:20;;;;;;;3.80;2.00;;;36.30;50.30;;;;;;5093902;28;20608;-56
2023/06/29 05:50:47;;;;;;;5.55;1.95;;;36.70;49.40;;;;;;5094266;28;20200;-57
2023/06/29 05:53:13;;;;;;;4.32;1.85;;;37.00;49.00;;;;;;5093761;28;20686;-58
2023/06/29 05:55:40;;;;;;;4.15;2.80;;;37.20;48.30;;;;;;5093525;28;20228;-56
2023/06/29 05:58:07;;;;;;;4.63;1.95;;;37.40;48.20;;;;;;5093120;28;20208;-57
2023/06/29 06:00:35;;;;;;;3.83;2.30;;;37.70;48.20;;;;;;5093432;28;20245;-56
2023/06/29 06:03:02;;;;;;;4.15;2.00;;;38.20;47.00;;;;;;5093880;28;20207;-57
2023/06/29 06:05:28;;;;;;;4.13;2.13;;;38.70;46.00;;;;;;5093651;28;20227;-58
2023/06/29 06:07:55;;;;;;;3.33;1.80;;;39.00;45.50;;;;;;5093117;28;20736;-58
2023/06/29 06:10:22;;;;;;;4.88;1.80;;;39.30;44.90;;;;;;5093476;28;20204;-59
2023/06/29 06:12:49;;;;;;;3.88;1.90;;;39.80;44.20;;;;;;5093839;28;20208;-58
2023/06/29 06:15:16;;;;;;;5.20;2.47;;;40.30;43.30;;;;;;5093254;28;20243;-59
2023/06/29 06:17:44;;;;;;;8.32;2.00;;;40.90;42.30;;;;;;5093309;28;20211;-56
2023/06/29 06:20:12;;;;;;;4.03;3.13;;;41.10;41.50;;;;;;5093407;28;20224;-56
2023/06/29 06:22:39;;;;;;;2.63;1.70;;;41.20;41.40;;;;;;5093110;28;20204;-55
2023/06/29 06:25:07;;;;;;;3.35;1.38;;;41.40;41.30;;;;;;5093277;28;20223;-57
2023/06/29 06:27:33;;;;;;;5.05;1.88;;;41.80;40.50;;;;;;5092748;28;20199;-56
2023/06/29 06:30:04;;;;;;;3.50;1.73;;;41.70;39.90;;;;;;5093117;28;20676;-57
2023/06/29 06:32:31;;;;;;;2.40;1.88;;;41.50;40.10;;;;;;5092947;28;20594;-56
2023/06/29 06:34:59;;;;;;;2.65;1.67;;;41.60;39.70;;;;;;5093291;28;20224;-55
2023/06/29 06:37:26;;;;;;;3.63;1.80;;;41.80;39.70;;;;;;5092757;28;20203;-56
2023/06/29 06:39:52;;;;;;;3.38;1.70;;;42.10;39.20;;;;;;5092765;28;20219;-57
2023/06/29 06:42:19;;;;;;;3.92;1.73;;;42.20;38.40;;;;;;5092884;28;20587;-57
2023/06/29 06:44:51;;;;;;;4.60;1.80;;;42.40;38.20;;;;;;5092939;28;20235;-56
2023/06/29 06:47:18;;;;;;;2.97;1.75;;;42.50;38.00;;;;;;5092517;28;20211;-56
2023/06/29 06:49:45;;;;;;;2.25;1.77;;;42.50;38.30;;;;;;5092693;28;20207;-57
2023/06/29 06:52:13;;;;;;;5.05;1.60;;;42.70;37.80;;;;;;5092712;28;20257;-55
2023/06/29 06:54:40;;;;;;;7.65;1.70;;;42.80;37.50;;;;;;5093012;28;20273;-55
2023/06/29 06:57:06;;;;;;;2.97;1.50;;;42.90;37.40;;;;;;5092436;28;20287;-57
2023/06/29 06:59:33;;;;;;;2.63;1.30;;;43.10;36.90;;;;;;5092558;28;20227;-56
2023/06/29 07:02:00;;;;;;;5.15;1.85;;;43.10;36.70;;;;;;5092582;28;20204;-57
2023/06/29 07:04:27;;;;;;;3.35;1.80;;;43.30;36.30;;;;;;5092330;28;20233;-55
2023/06/29 07:06:54;;;;;;;3.40;1.80;;;43.60;36.10;;;;;;5092222;28;20208;-56
2023/06/29 07:09:22;;;;;;;2.10;1.30;;;43.90;35.80;;;;;;5091882;28;20207;-56
2023/06/29 07:11:49;;;;;;;3.72;1.70;;;44.40;35.70;;;;;;5092016;28;20204;-56
2023/06/29 07:14:16;;;;;;;3.70;1.55;;;44.90;35.50;;;;;;5116014;22;20224;-57
2023/06/29 07:16:43;;;;;;;4.60;1.40;;;45.50;34.60;;;;;;5091786;28;20232;-58
2023/06/29 07:19:12;;;;;;;4.57;2.55;;;45.90;34.10;;;;;;5091917;28;20673;-58
2023/06/29 07:21:39;;;;;;;2.85;1.50;;;46.20;33.60;;;;;;5091759;28;20234;-58
2023/06/29 07:24:06;;;;;;;2.28;1.60;;;46.20;33.30;;;;;;5091908;28;20231;-58
2023/06/29 07:26:35;;;;;;;3.60;1.58;;;46.20;33.20;;;;;;5091737;28;20207;-57
2023/06/29 07:29:02;;;;;;;2.17;1.50;;;46.20;33.00;;;;;;5092109;28;20203;-59
2023/06/29 07:31:29;;;;;;;2.70;1.52;;;46.10;33.20;;;;;;5092421;28;20617;-58
2023/06/29 07:33:57;;;;;;;4.65;1.60;;;45.90;33.90;;;;;;5091792;28;20204;-58
2023/06/29 07:36:25;;;;;;;3.55;1.48;;;45.30;33.50;;;;;;5091210;28;20211;-58
2023/06/29 07:38:52;;;;;;;5.45;1.42;;;45.30;33.60;;;;;;5091832;28;20203;-57
2023/06/29 07:41:21;;;;;;;2.08;1.30;;;45.60;33.10;;;;;;5091972;28;20223;-58
2023/06/29 07:43:53;;;;;;;5.00;1.52;;;46.00;32.50;;;;;;5091574;28;20199;-58
2023/06/29 07:46:19;;;;;;;37.42;26.85;;;45.60;32.60;;;;;;5091426;28;20212;-58
2023/06/29 07:48:47;;;;;;;3.75;1.60;;;44.90;33.70;;;;;;5091338;28;20583;-57
2023/06/29 07:51:14;;;;;;;2.60;1.40;;;43.90;33.90;;;;;;5091239;28;20226;-56
2023/06/29 07:53:41;;;;;;;4.90;1.50;;;42.50;35.20;;;;;;5091532;28;20210;-57
2023/06/29 07:56:08;;;;;;;3.75;1.65;;;41.20;36.50;;;;;;5090625;28;20628;-57
2023/06/29 07:58:35;;;;;;;2.35;1.55;;;39.70;38.00;;;;;;5091431;28;20206;-57
2023/06/29 08:01:03;;;;;;;3.63;1.60;;;38.40;39.20;;;;;;5091371;28;20224;-62
2023/06/29 08:03:30;;;;;;;5.43;1.55;;;37.40;40.40;;;;;;5091262;28;20674;-58
2023/06/29 08:05:57;;;;;;;2.67;1.67;;;37.20;40.90;;;;;;5090992;28;20228;-58
2023/06/29 08:08:28;;;;;;;2.40;1.58;;;37.60;40.40;;;;;;5091501;28;20238;-57
2023/06/29 08:10:54;;;;;;;2.75;1.50;;;38.10;39.90;;;;;;5091267;28;20207;-57
2023/06/29 08:13:21;;;;;;;3.47;1.80;;;38.70;39.00;;;;;;5091274;28;20204;-57
2023/06/29 08:15:48;;;;;;;4.35;1.75;;;39.60;38.40;;;;;;5090688;28;20243;-58
2023/06/29 08:18:16;;;;;;;3.55;1.50;;;40.70;37.20;;;;;;5091154;28;20207;-57
2023/06/29 08:20:45;;;;;;;3.22;1.40;;;41.70;35.90;;;;;;5091265;28;20367;-57
2023/06/29 08:23:12;;;;;;;4.00;1.50;;;43.00;34.40;;;;;;5095339;28;20298;-57
2023/06/29 08:25:39;;;;;;;3.22;1.50;;;43.50;33.10;;;;;;5095207;28;20276;-57
2023/06/29 08:28:06;;;;;;;3.92;1.23;;;43.30;33.40;;;;;;5095025;28;20210;-57
2023/06/29 08:30:33;;;;;;;2.90;1.27;;;43.50;33.40;;;;;;5094839;28;20256;-58
2023/06/29 08:33:00;;;;;;;5.13;1.50;;;43.50;33.20;;;;;;5095302;28;20252;-55
2023/06/29 08:35:28;;;;;;;2.25;1.30;;;43.20;33.90;;;;;;5094781;28;20710;-56
2023/06/29 08:37:55;;;;;;;3.38;1.50;;;42.70;33.50;;;;;;5094731;28;20203;-55
2023/06/29 08:40:23;;;;;;;3.50;1.50;;;41.80;34.30;;;;;;5094880;28;20219;-56
2023/06/29 08:42:50;;;;;;;2.55;1.67;;;40.50;35.10;;;;;;5095092;28;20247;-56
2023/06/29 08:45:17;;;;;;;6.03;1.58;;;39.40;36.50;;;;;;5095104;28;20220;-56
2023/06/29 08:47:46;;;;;;;2.58;1.50;;;38.20;37.50;;;;;;5094801;28;20212;-56
2023/06/29 08:50:14;;;;;;;4.68;1.70;;;37.40;38.70;;;;;;5094438;28;20200;-57
2023/06/29 08:52:44;;;;;;;5.03;1.50;;;36.70;39.60;;;;;;5094689;28;20233;-57
2023/06/29 08:55:12;;;;;;;4.57;1.70;;;36.30;40.30;;;;;;5094380;28;20743;-57
2023/06/29 08:57:39;;;;;;;1.90;1.30;;;36.00;40.50;;;;;;5094227;28;20204;-56
2023/06/29 09:00:08;;;;;;;3.05;1.30;;;35.80;40.60;;;;;;5094517;28;20208;-57
2023/06/29 09:02:35;;;;;;;4.00;1.80;;;35.80;40.80;;;;;;5094484;28;20239;-56
2023/06/29 09:05:03;;;;;;;3.28;1.42;;;35.80;40.80;;;;;;5094636;28;20308;-57
2023/06/29 09:07:30;;;;;;;2.13;1.40;;;35.90;40.90;;;;;;5094556;28;20212;-58
2023/06/29 09:09:58;;;;;;;4.03;1.85;;;35.90;40.80;;;;;;5094442;28;20208;-57
2023/06/29 09:12:24;;;;;;;5.10;1.58;;;35.70;40.50;;;;;;5094353;28;20208;-57
2023/06/29 09:14:53;;;;;;;3.83;1.70;;;35.60;40.30;;;;;;5094453;28;20239;-57
2023/06/29 09:17:21;;;;;;;3.53;1.90;;;35.60;41.00;;;;;;5094325;28;20419;-57
2023/06/29 09:19:54;;;;;;;2.85;1.55;;;35.80;41.30;;;;;;5094173;28;20215;-57
2023/06/29 09:22:21;;;;;;;2.47;1.45;;;36.00;40.80;;;;;;5093987;28;20246;-56
2023/06/29 09:24:48;;;;;;;3.97;2.50;;;35.80;40.70;;;;;;5093752;28;20636;-56
2023/06/29 09:27:16;;;;;;;4.30;1.23;;;35.80;40.30;;;;;;5093695;28;20212;-58
2023/06/29 09:29:50;;;;;;;4.32;1.67;;;35.90;40.20;;;;;;5094030;28;20208;-56
2023/06/29 09:32:17;;;;;;;2.22;1.38;;;35.80;40.60;;;;;;5093634;28;20203;-57
2023/06/29 09:34:45;;;;;;;2.55;1.63;;;35.80;40.70;;;;;;5093199;28;20227;-57
2023/06/29 09:37:13;;;;;;;2.45;1.55;;;35.80;41.40;;;;;;5093401;28;20204;-55
2023/06/29 09:39:49;;;;;;;3.35;1.75;;;35.70;41.00;;;;;;5093522;28;20215;-58
2023/06/29 09:42:17;;;;;;;3.25;1.73;;;35.60;41.60;;;;;;5093900;28;20219;-56
2023/06/29 09:44:46;;;;;;;3.45;1.50;;;34.90;42.60;;;;;;5093955;28;20564;-58
2023/06/29 09:47:12;;;;;;;3.42;1.67;;;34.70;42.40;;;;;;5093765;28;20243;-57
2023/06/29 09:49:47;;;;;;;4.60;1.80;;;34.50;42.60;;;;;;5093742;28;20208;-57
2023/06/29 09:52:15;;;;;;;2.90;1.58;;;34.30;43.20;;;;;;5094069;28;20200;-56
2023/06/29 09:54:41;;;;;;;3.80;1.80;;;34.30;43.50;;;;;;5093208;28;20432;-61
2023/06/29 09:57:10;;;;;;;4.95;1.88;;;34.50;43.50;;;;;;5093212;28;20257;-56
2023/06/29 09:59:39;;;;;;;4.55;2.05;;;34.60;43.10;;;;;;5093518;28;20212;-56
2023/06/29 10:02:07;;;;;;;7.45;1.90;;;34.80;43.00;;;;;;5093052;28;20258;-56
2023/06/29 10:04:34;;;;;;;2.92;1.85;;;34.80;42.90;;;;;;5092893;28;20232;-56
2023/06/29 10:07:07;;;;;;;3.25;1.80;;;34.90;43.10;;;;;;5092837;28;20660;-57
2023/06/29 10:09:36;;;;;;;3.90;1.88;;;35.00;42.70;;;;;;5093202;28;20832;-57
2023/06/29 10:12:06;;;;;;;2.20;1.52;;;35.20;42.30;;;;;;5092971;28;20672;-57
2023/06/29 10:14:34;;;;;;;5.32;1.58;;;35.10;42.30;;;;;;5092977;28;20282;-56
2023/06/29 10:17:05;;;;;;;2.92;1.80;;;34.80;42.90;;;;;;5092673;28;20210;-56
2023/06/29 10:19:34;;;;;;;5.07;1.73;;;34.30;43.50;;;;;;5089800;28;20623;-60
2023/06/29 10:22:05;;;;;;;3.50;1.80;;;34.20;43.90;;;;;;5092928;28;20224;-58
2023/06/29 10:24:38;;;;;;;2.60;1.92;;;34.10;44.10;;;;;;5092839;28;20594;-60
2023/06/29 10:27:07;;;;;;;3.38;1.90;;;34.10;43.90;;;;;;5091476;28;20277;-62
2023/06/29 10:29:42;;;;;;;4.13;1.70;;;34.10;44.30;;;;;;5091693;28;20265;-59
2023/06/29 10:32:29;;;;;;;5.25;1.83;;;34.10;44.20;;;;;;5090880;28;20200;-62
2023/06/29 10:35:10;;;;;;;4.40;1.60;;;34.20;44.10;;;;;;5081604;28;20738;-61
2023/06/29 10:37:38;;;;;;;6.50;1.90;;;34.20;43.40;;;;;;5092326;28;20223;-58
2023/06/29 10:40:14;;;;;;;3.20;1.80;;;34.10;43.70;;;;;;5092828;28;20261;-58
2023/06/29 10:42:57;;;;;;;3.42;1.50;;;34.10;44.10;;;;;;5092356;28;20318;-59
2023/06/29 10:45:33;;;;;;;4.13;1.45;;;33.80;44.20;;;;;;5092340;28;20231;-58
2023/06/29 10:48:07;;;;;;;3.00;1.50;;;33.60;44.70;;;;;;5092015;28;20208;-58
2023/06/29 10:50:37;;;;;;;4.20;1.40;;;33.60;44.60;;;;;;5091467;28;20200;-61
2023/06/29 10:53:05;;;;;;;3.10;1.98;;;33.60;44.50;;;;;;5092165;28;20208;-61
2023/06/29 10:55:44;;;;;;;2.67;1.80;;;33.80;44.50;;;;;;5092036;28;20314;-60
2023/06/29 10:58:16;;;;;;;2.83;1.77;;;34.00;44.30;;;;;;5091883;28;20214;-61
2023/06/29 11:00:42;;;;;;;3.60;1.50;;;34.00;44.30;;;;;;5089801;28;20211;-60
2023/06/29 11:03:11;;;;;;;3.03;1.63;;;33.90;44.40;;;;;;5091909;28;20351;-60
2023/06/29 11:05:39;;;;;;;3.28;1.90;;;33.70;45.00;;;;;;5091868;28;20349;-60
2023/06/29 11:08:07;;;;;;;4.30;1.80;;;33.70;44.70;;;;;;5091944;28;20269;-61
2023/06/29 11:10:34;;;;;;;4.25;2.28;;;33.70;44.30;;;;;;5091993;28;20287;-61
2023/06/29 11:13:01;;;;;;;5.35;1.88;;;33.80;43.90;;;;;;5091758;28;20299;-59
2023/06/29 11:15:28;;;;;;;4.65;2.00;;;33.70;44.10;;;;;;5091766;28;20232;-60
2023/06/29 11:17:55;;;;;;;3.08;1.90;;;33.50;44.20;;;;;;5091407;28;20687;-60
2023/06/29 11:20:29;;;;;;;3.03;1.80;;;33.30;44.30;;;;;;5091646;28;20251;-59
2023/06/29 11:22:57;;;;;;;3.58;1.90;;;33.10;44.60;;;;;;5091901;28;20274;-58
2023/06/29 11:25:25;;;;;;;5.50;1.88;;;33.20;44.90;;;;;;5091821;28;20236;-58
2023/06/29 11:27:53;;;;;;;5.00;2.50;;;33.40;44.80;;;;;;5091169;28;20215;-62
2023/06/29 11:30:20;;;;;;;5.38;2.50;;;33.70;44.30;;;;;;5091594;28;20205;-63
2023/06/29 11:32:50;;;;;;;5.40;3.63;;;34.10;43.80;;;;;;5091861;28;20269;-57
2023/06/29 11:35:20;;;;;;;4.88;2.85;;;34.50;43.10;;;;;;5091742;28;20674;-58
2023/06/29 11:37:49;;;;;;;5.35;2.60;;;34.70;43.10;;;;;;5091583;28;20208;-58
2023/06/29 11:40:18;;;;;;;4.80;2.70;;;34.80;43.00;;;;;;5091573;28;20204;-57
2023/06/29 11:42:45;;;;;;;6.22;2.95;;;35.00;42.50;;;;;;5091354;28;20908;-56
2023/06/29 11:45:12;;;;;;;5.22;2.70;;;35.00;42.80;;;;;;5091730;28;20293;-56
2023/06/29 11:47:39;;;;;;;4.20;2.75;;;34.90;43.10;;;;;;5091632;28;20242;-56
2023/06/29 11:50:09;;;;;;;4.90;2.35;;;35.00;43.10;;;;;;5091458;28;20215;-57
2023/06/29 11:52:38;;;;;;;5.32;2.42;;;35.10;42.90;;;;;;5092241;28;20201;-56
2023/06/29 11:55:08;;;;;;;8.98;3.05;;;35.20;43.10;;;;;;5091791;28;20228;-57
2023/06/29 11:57:36;;;;;;;5.70;2.92;;;35.40;42.60;;;;;;5091079;28;20212;-57
2023/06/29 12:00:04;;;;;;;4.13;2.45;;;35.50;42.60;;;;;;5091486;28;20208;-58
2023/06/29 12:02:31;;;;;;;3.58;2.38;;;35.40;42.60;;;;;;5091384;28;20776;-56
2023/06/29 12:04:59;;;;;;;4.78;2.40;;;35.40;42.60;;;;;;5091988;28;20220;-56
2023/06/29 12:07:39;;;;;;;4.30;2.70;;;35.50;42.60;;;;;;5091749;28;20216;-56
2023/06/29 12:10:09;;;;;;;5.28;2.83;;;35.60;41.90;;;;;;5091650;28;20324;-56
2023/06/29 12:12:40;;;;;;;5.13;2.60;;;35.50;42.50;;;;;;5092088;28;20216;-59
2023/06/29 12:15:17;;;;;;;5.18;2.50;;;35.30;42.50;;;;;;5092242;28;20228;-56
2023/06/29 12:17:45;;;;;;;3.17;2.50;;;35.20;42.40;;;;;;5091836;28;20222;-56
2023/06/29 12:20:16;;;;;;;5.80;2.80;;;35.30;42.50;;;;;;5092165;28;20265;-57
2023/06/29 12:22:43;;;;;;;5.57;2.95;;;35.20;43.10;;;;;;5092143;28;20309;-56
2023/06/29 12:25:13;;;;;;;5.80;3.35;;;35.10;43.10;;;;;;5091701;28;20227;-56
2023/06/29 12:27:41;;;;;;;4.05;2.88;;;34.90;43.20;;;;;;5091000;28;20638;-57
2023/06/29 12:30:11;;;;;;;4.30;3.28;;;34.70;43.30;;;;;;5090996;28;20574;-56
2023/06/29 12:32:38;;;;;;;5.13;3.05;;;34.50;43.60;;;;;;5091396;28;20200;-57
2023/06/29 12:35:05;;;;;;;4.88;3.20;;;34.50;43.70;;;;;;5091133;28;20765;-56
2023/06/29 12:37:32;;;;;;;3.80;3.05;;;34.60;43.60;;;;;;5091256;28;20223;-56
2023/06/29 12:39:59;;;;;;;6.88;3.30;;;34.80;43.40;;;;;;5091264;28;20216;-57
2023/06/29 12:42:27;;;;;;;6.85;3.55;;;35.00;43.20;;;;;;5091159;28;20224;-57
2023/06/29 12:44:53;;;;;;;5.93;3.50;;;34.90;43.30;;;;;;5090988;28;20220;-56
2023/06/29 12:47:20;;;;;;;6.28;3.67;;;34.70;43.60;;;;;;5090843;28;20581;-56
2023/06/29 12:49:47;;;;;;;5.55;3.92;;;34.60;44.40;;;;;;5091018;28;20299;-57
2023/06/29 12:52:15;;;;;;;6.88;3.63;;;34.60;43.70;;;;;;5091085;28;20207;-56